sensor_id;sensor_type;location;lat;lon;timestamp;temperature;humidity
3792;DHT22;1911;53.768;11.474;2023-05-20T00:01:00;8.80;1.00
3792;DHT22;1911;53.768;11.474;2023-05-20T00:03:26;8.80;1.00
3792;DHT22;1911;53.768;11.474;2023-05-20T00:05:51;8.70;1.00
3792;DHT22;1911;53.768;11.474;2023-05-20T00:08:18;8.60;99.90
3792;DHT22;1911;53.768;11.474;2023-05-20T00:10:43;8.60;99.90
3792;DHT22;1911;53.768;11.474;2023-05-20T00:13:09;8.60;99.90
3792;DHT22;1911;53.768;11.474;2023-05-20T00:15:35;8.60;99.90
3792;DHT22;1911;53.768;11.474;2023-05-20T00:18:01;8.50;1.00
3792;DHT22;1911;53.768;11.474;2023-05-20T00:20:28;8.60;1.00
3792;DHT22;1911;53.768;11.474;2023-05-20T00:22:53;8.50;1.00
3792;DHT22;1911;53.768;11.474;2023-05-20T00:25:19;8.60;1.00
3792;DHT22;1911;53.768;11.474;2023-05-20T00:27:45;8.50;1.00
3792;DHT22;1911;53.768;11.474;2023-05-20T00:30:11;8.50;1.00
3792;DHT22;1911;53.768;11.474;2023-05-20T00:32:37;8.40;1.00
3792;DHT22;1911;53.768;11.474;2023-05-20T00:35:03;8.40;1.00
3792;DHT22;1911;53.768;11.474;2023-05-20T00:37:29;8.30;1.00
3792;DHT22;1911;53.768;11.474;2023-05-20T00:39:54;8.30;1.00
3792;DHT22;1911;53.768;11.474;2023-05-20T00:42:21;8.20;1.00
3792;DHT22;1911;53.768;11.474;2023-05-20T00:44:47;8.30;1.00
3792;DHT22;1911;53.768;11.474;2023-05-20T00:47:17;8.20;1.00
3792;DHT22;1911;53.768;11.474;2023-05-20T00:49:48;8.30;1.00
3792;DHT22;1911;53.768;11.474;2023-05-20T00:52:15;8.20;1.00
3792;DHT22;1911;53.768;11.474;2023-05-20T00:54:41;8.20;1.00
3792;DHT22;1911;53.768;11.474;2023-05-20T00:57:07;8.20;1.00
3792;DHT22;1911;53.768;11.474;2023-05-20T00:59:37;8.20;1.00
3792;DHT22;1911;53.768;11.474;2023-05-20T01:02:08;8.20;1.00
3792;DHT22;1911;53.768;11.474;2023-05-20T01:04:33;8.20;1.00
3792;DHT22;1911;53.768;11.474;2023-05-20T01:07:01;8.20;1.00
3792;DHT22;1911;53.768;11.474;2023-05-20T01:09:29;8.20;1.00
3792;DHT22;1911;53.768;11.474;2023-05-20T01:14:36;8.20;1.00
3792;DHT22;1911;53.768;11.474;2023-05-20T01:17:05;8.20;1.00
3792;DHT22;1911;53.768;11.474;2023-05-20T01:19:41;8.20;1.00
3792;DHT22;1911;53.768;11.474;2023-05-20T01:22:09;8.20;1.00
3792;DHT22;1911;53.768;11.474;2023-05-20T01:24:44;8.10;1.00
3792;DHT22;1911;53.768;11.474;2023-05-20T01:27:13;8.10;1.00
3792;DHT22;1911;53.768;11.474;2023-05-20T01:29:40;8.10;1.00
3792;DHT22;1911;53.768;11.474;2023-05-20T01:32:37;8.10;1.00
3792;DHT22;1911;53.768;11.474;2023-05-20T01:35:02;8.10;1.00
3792;DHT22;1911;53.768;11.474;2023-05-20T01:37:29;8.00;1.00
3792;DHT22;1911;53.768;11.474;2023-05-20T01:39:56;8.00;1.00
3792;DHT22;1911;53.768;11.474;2023-05-20T01:42:22;8.00;1.00
3792;DHT22;1911;53.768;11.474;2023-05-20T01:44:49;8.00;1.00
3792;DHT22;1911;53.768;11.474;2023-05-20T01:47:15;7.90;1.00
3792;DHT22;1911;53.768;11.474;2023-05-20T01:49:41;7.90;1.00
3792;DHT22;1911;53.768;11.474;2023-05-20T01:52:06;7.90;1.00
3792;DHT22;1911;53.768;11.474;2023-05-20T01:54:32;7.90;1.00
3792;DHT22;1911;53.768;11.474;2023-05-20T01:56:57;7.80;1.00
3792;DHT22;1911;53.768;11.474;2023-05-20T01:59:23;7.80;1.00
3792;DHT22;1911;53.768;11.474;2023-05-20T02:01:49;7.80;1.00
3792;DHT22;1911;53.768;11.474;2023-05-20T02:04:15;7.80;1.00
3792;DHT22;1911;53.768;11.474;2023-05-20T02:06:43;7.80;1.00
3792;DHT22;1911;53.768;11.474;2023-05-20T02:09:08;7.80;1.00
3792;DHT22;1911;53.768;11.474;2023-05-20T02:11:34;7.90;1.50
3792;DHT22;1911;53.768;11.474;2023-05-20T02:14:00;7.80;4.40
3792;DHT22;1911;53.768;11.474;2023-05-20T02:16:26;7.80;2.70
3792;DHT22;1911;53.768;11.474;2023-05-20T02:18:51;7.80;4.40
3792;DHT22;1911;53.768;11.474;2023-05-20T02:21:17;7.70;15.20
3792;DHT22;1911;53.768;11.474;2023-05-20T02:23:43;7.70;24.90
3792;DHT22;1911;53.768;11.474;2023-05-20T02:26:09;7.60;45.30
3792;DHT22;1911;53.768;11.474;2023-05-20T02:28:35;7.70;47.50
3792;DHT22;1911;53.768;11.474;2023-05-20T02:31:02;7.60;47.40
3792;DHT22;1911;53.768;11.474;2023-05-20T02:33:28;7.70;53.90
3792;DHT22;1911;53.768;11.474;2023-05-20T02:35:53;7.70;75.60
3792;DHT22;1911;53.768;11.474;2023-05-20T02:38:19;7.70;75.80
3792;DHT22;1911;53.768;11.474;2023-05-20T02:40:46;7.60;87.70
3792;DHT22;1911;53.768;11.474;2023-05-20T02:43:11;7.60;99.90
3792;DHT22;1911;53.768;11.474;2023-05-20T02:45:37;7.60;99.90
3792;DHT22;1911;53.768;11.474;2023-05-20T02:48:03;7.60;99.90
3792;DHT22;1911;53.768;11.474;2023-05-20T02:50:28;7.50;99.90
3792;DHT22;1911;53.768;11.474;2023-05-20T02:52:54;7.50;99.90
3792;DHT22;1911;53.768;11.474;2023-05-20T02:55:20;7.50;99.90
3792;DHT22;1911;53.768;11.474;2023-05-20T02:57:45;7.50;99.90
3792;DHT22;1911;53.768;11.474;2023-05-20T03:00:11;7.50;99.90
3792;DHT22;1911;53.768;11.474;2023-05-20T03:02:38;7.40;99.90
3792;DHT22;1911;53.768;11.474;2023-05-20T03:05:04;7.40;99.90
3792;DHT22;1911;53.768;11.474;2023-05-20T03:07:31;7.30;99.90
3792;DHT22;1911;53.768;11.474;2023-05-20T03:09:58;7.30;99.90
3792;DHT22;1911;53.768;11.474;2023-05-20T03:12:24;7.20;99.90
3792;DHT22;1911;53.768;11.474;2023-05-20T03:14:51;7.20;99.90
3792;DHT22;1911;53.768;11.474;2023-05-20T03:17:20;7.20;99.90
3792;DHT22;1911;53.768;11.474;2023-05-20T03:19:45;7.20;99.90
3792;DHT22;1911;53.768;11.474;2023-05-20T03:22:11;7.20;99.90
3792;DHT22;1911;53.768;11.474;2023-05-20T03:24:36;7.30;99.90
3792;DHT22;1911;53.768;11.474;2023-05-20T03:27:02;7.30;99.90
3792;DHT22;1911;53.768;11.474;2023-05-20T03:29:28;7.30;99.90
3792;DHT22;1911;53.768;11.474;2023-05-20T03:31:54;7.20;99.90
3792;DHT22;1911;53.768;11.474;2023-05-20T03:34:19;7.30;99.90
3792;DHT22;1911;53.768;11.474;2023-05-20T03:36:45;7.30;99.90
3792;DHT22;1911;53.768;11.474;2023-05-20T03:39:10;7.30;99.90
3792;DHT22;1911;53.768;11.474;2023-05-20T03:41:36;7.30;99.90
3792;DHT22;1911;53.768;11.474;2023-05-20T03:44:02;7.30;99.90
3792;DHT22;1911;53.768;11.474;2023-05-20T03:46:28;7.30;99.90
3792;DHT22;1911;53.768;11.474;2023-05-20T03:48:55;7.30;99.90
3792;DHT22;1911;53.768;11.474;2023-05-20T03:51:20;7.40;99.90
3792;DHT22;1911;53.768;11.474;2023-05-20T03:53:47;7.40;99.90
3792;DHT22;1911;53.768;11.474;2023-05-20T03:56:12;7.40;99.90
3792;DHT22;1911;53.768;11.474;2023-05-20T03:58:38;7.50;99.90
3792;DHT22;1911;53.768;11.474;2023-05-20T04:01:03;7.50;99.90
3792;DHT22;1911;53.768;11.474;2023-05-20T04:03:29;7.50;99.90
3792;DHT22;1911;53.768;11.474;2023-05-20T04:05:55;7.50;99.90
3792;DHT22;1911;53.768;11.474;2023-05-20T04:08:21;7.60;99.90
3792;DHT22;1911;53.768;11.474;2023-05-20T04:10:50;7.60;99.90
3792;DHT22;1911;53.768;11.474;2023-05-20T04:13:19;7.60;99.90
3792;DHT22;1911;53.768;11.474;2023-05-20T04:15:46;7.70;99.90
3792;DHT22;1911;53.768;11.474;2023-05-20T04:18:12;7.70;99.90
3792;DHT22;1911;53.768;11.474;2023-05-20T04:20:38;7.70;99.90
3792;DHT22;1911;53.768;11.474;2023-05-20T04:23:05;7.80;99.90
3792;DHT22;1911;53.768;11.474;2023-05-20T04:25:31;7.90;99.90
3792;DHT22;1911;53.768;11.474;2023-05-20T04:27:58;8.00;99.90
3792;DHT22;1911;53.768;11.474;2023-05-20T04:30:24;8.10;99.90
3792;DHT22;1911;53.768;11.474;2023-05-20T04:32:50;8.10;99.90
3792;DHT22;1911;53.768;11.474;2023-05-20T04:35:16;8.20;99.90
3792;DHT22;1911;53.768;11.474;2023-05-20T04:37:42;8.30;99.90
3792;DHT22;1911;53.768;11.474;2023-05-20T04:40:12;8.50;99.90
3792;DHT22;1911;53.768;11.474;2023-05-20T04:42:38;8.60;99.90
3792;DHT22;1911;53.768;11.474;2023-05-20T04:45:04;8.70;99.90
3792;DHT22;1911;53.768;11.474;2023-05-20T04:47:30;9.00;99.90
3792;DHT22;1911;53.768;11.474;2023-05-20T04:49:56;9.00;99.90
3792;DHT22;1911;53.768;11.474;2023-05-20T04:52:25;9.30;99.90
3792;DHT22;1911;53.768;11.474;2023-05-20T04:54:53;9.50;99.90
3792;DHT22;1911;53.768;11.474;2023-05-20T04:57:22;9.90;99.90
3792;DHT22;1911;53.768;11.474;2023-05-20T04:59:48;10.00;99.90
3792;DHT22;1911;53.768;11.474;2023-05-20T05:02:13;10.10;99.90
3792;DHT22;1911;53.768;11.474;2023-05-20T05:04:39;10.10;99.90
3792;DHT22;1911;53.768;11.474;2023-05-20T05:07:05;10.30;99.90
3792;DHT22;1911;53.768;11.474;2023-05-20T05:09:30;10.60;99.90
3792;DHT22;1911;53.768;11.474;2023-05-20T05:11:56;10.70;99.90
3792;DHT22;1911;53.768;11.474;2023-05-20T05:14:22;11.00;99.90
3792;DHT22;1911;53.768;11.474;2023-05-20T05:16:48;11.30;99.90
3792;DHT22;1911;53.768;11.474;2023-05-20T05:19:14;12.10;99.90
3792;DHT22;1911;53.768;11.474;2023-05-20T05:21:40;13.20;31.10
3792;DHT22;1911;53.768;11.474;2023-05-20T05:24:06;14.50;1.00
3792;DHT22;1911;53.768;11.474;2023-05-20T05:26:32;14.90;1.00
3792;DHT22;1911;53.768;11.474;2023-05-20T05:28:57;16.40;1.00
3792;DHT22;1911;53.768;11.474;2023-05-20T05:31:23;17.80;1.00
3792;DHT22;1911;53.768;11.474;2023-05-20T05:33:49;19.60;99.90
3792;DHT22;1911;53.768;11.474;2023-05-20T05:36:15;20.30;1.00
3792;DHT22;1911;53.768;11.474;2023-05-20T05:38:41;20.90;1.00
3792;DHT22;1911;53.768;11.474;2023-05-20T05:41:06;21.40;1.00
3792;DHT22;1911;53.768;11.474;2023-05-20T05:43:32;22.30;1.00
3792;DHT22;1911;53.768;11.474;2023-05-20T05:45:58;22.30;1.00
3792;DHT22;1911;53.768;11.474;2023-05-20T05:48:23;22.00;99.90
3792;DHT22;1911;53.768;11.474;2023-05-20T05:50:49;22.70;99.90
3792;DHT22;1911;53.768;11.474;2023-05-20T05:53:14;22.30;99.90
3792;DHT22;1911;53.768;11.474;2023-05-20T05:55:40;21.80;99.90
3792;DHT22;1911;53.768;11.474;2023-05-20T05:58:06;21.20;99.90
3792;DHT22;1911;53.768;11.474;2023-05-20T06:00:31;21.80;99.90
3792;DHT22;1911;53.768;11.474;2023-05-20T06:02:57;22.70;99.90
3792;DHT22;1911;53.768;11.474;2023-05-20T06:05:22;23.00;99.90
3792;DHT22;1911;53.768;11.474;2023-05-20T06:07:48;23.50;99.90
3792;DHT22;1911;53.768;11.474;2023-05-20T06:10:13;23.50;99.90
3792;DHT22;1911;53.768;11.474;2023-05-20T06:12:39;23.10;99.90
3792;DHT22;1911;53.768;11.474;2023-05-20T06:15:05;24.00;99.90
3792;DHT22;1911;53.768;11.474;2023-05-20T06:17:31;23.30;99.90
3792;DHT22;1911;53.768;11.474;2023-05-20T06:19:57;21.60;99.90
3792;DHT22;1911;53.768;11.474;2023-05-20T06:22:23;22.30;99.90
3792;DHT22;1911;53.768;11.474;2023-05-20T06:24:49;23.10;99.90
3792;DHT22;1911;53.768;11.474;2023-05-20T06:27:14;22.80;99.90
3792;DHT22;1911;53.768;11.474;2023-05-20T06:29:40;22.70;99.90
3792;DHT22;1911;53.768;11.474;2023-05-20T06:32:06;23.20;99.90
3792;DHT22;1911;53.768;11.474;2023-05-20T06:34:31;23.00;99.90
3792;DHT22;1911;53.768;11.474;2023-05-20T06:36:57;23.30;99.90
3792;DHT22;1911;53.768;11.474;2023-05-20T06:39:23;23.50;99.90
3792;DHT22;1911;53.768;11.474;2023-05-20T06:41:49;22.50;99.90
3792;DHT22;1911;53.768;11.474;2023-05-20T06:44:17;21.80;99.90
3792;DHT22;1911;53.768;11.474;2023-05-20T06:46:43;22.20;99.90
3792;DHT22;1911;53.768;11.474;2023-05-20T06:49:09;23.10;99.90
3792;DHT22;1911;53.768;11.474;2023-05-20T06:51:34;22.70;99.90
3792;DHT22;1911;53.768;11.474;2023-05-20T06:54:00;20.70;99.90
3792;DHT22;1911;53.768;11.474;2023-05-20T06:56:25;21.30;99.90
3792;DHT22;1911;53.768;11.474;2023-05-20T06:58:51;20.90;99.90
3792;DHT22;1911;53.768;11.474;2023-05-20T07:01:17;21.20;99.90
3792;DHT22;1911;53.768;11.474;2023-05-20T07:03:42;21.40;99.90
3792;DHT22;1911;53.768;11.474;2023-05-20T07:06:09;20.40;99.90
3792;DHT22;1911;53.768;11.474;2023-05-20T07:08:35;21.80;99.90
3792;DHT22;1911;53.768;11.474;2023-05-20T07:11:00;21.70;99.90
3792;DHT22;1911;53.768;11.474;2023-05-20T07:13:26;22.20;99.90
3792;DHT22;1911;53.768;11.474;2023-05-20T07:15:51;22.10;99.90
3792;DHT22;1911;53.768;11.474;2023-05-20T07:18:17;21.50;99.90
3792;DHT22;1911;53.768;11.474;2023-05-20T07:20:43;20.60;99.90
3792;DHT22;1911;53.768;11.474;2023-05-20T07:23:09;20.70;99.90
3792;DHT22;1911;53.768;11.474;2023-05-20T07:25:35;20.60;99.90
3792;DHT22;1911;53.768;11.474;2023-05-20T07:28:00;20.00;99.90
3792;DHT22;1911;53.768;11.474;2023-05-20T07:30:26;18.80;99.90
3792;DHT22;1911;53.768;11.474;2023-05-20T07:32:52;18.50;99.90
3792;DHT22;1911;53.768;11.474;2023-05-20T07:35:18;18.00;99.90
3792;DHT22;1911;53.768;11.474;2023-05-20T07:37:43;17.90;99.90
3792;DHT22;1911;53.768;11.474;2023-05-20T07:40:09;17.60;99.90
3792;DHT22;1911;53.768;11.474;2023-05-20T07:42:35;17.50;99.90
3792;DHT22;1911;53.768;11.474;2023-05-20T07:45:01;17.20;99.90
3792;DHT22;1911;53.768;11.474;2023-05-20T07:47:26;17.70;1.00
3792;DHT22;1911;53.768;11.474;2023-05-20T07:49:52;17.90;1.00
3792;DHT22;1911;53.768;11.474;2023-05-20T07:52:18;17.60;1.00
3792;DHT22;1911;53.768;11.474;2023-05-20T07:54:50;16.50;1.00
3792;DHT22;1911;53.768;11.474;2023-05-20T07:57:28;16.30;1.00
3792;DHT22;1911;53.768;11.474;2023-05-20T07:59:54;16.50;1.00
3792;DHT22;1911;53.768;11.474;2023-05-20T08:02:19;17.10;1.00
3792;DHT22;1911;53.768;11.474;2023-05-20T08:04:45;17.20;1.00
3792;DHT22;1911;53.768;11.474;2023-05-20T08:07:11;17.10;1.00
3792;DHT22;1911;53.768;11.474;2023-05-20T08:09:36;18.20;1.00
3792;DHT22;1911;53.768;11.474;2023-05-20T08:12:02;19.50;1.00
3792;DHT22;1911;53.768;11.474;2023-05-20T08:14:28;20.70;1.00
3792;DHT22;1911;53.768;11.474;2023-05-20T08:16:53;20.70;1.00
3792;DHT22;1911;53.768;11.474;2023-05-20T08:19:19;20.00;1.00
3792;DHT22;1911;53.768;11.474;2023-05-20T08:21:44;19.50;1.00
3792;DHT22;1911;53.768;11.474;2023-05-20T08:24:10;19.40;1.00
3792;DHT22;1911;53.768;11.474;2023-05-20T08:26:36;19.10;1.00
3792;DHT22;1911;53.768;11.474;2023-05-20T08:29:02;18.70;1.00
3792;DHT22;1911;53.768;11.474;2023-05-20T08:31:27;19.20;1.00
3792;DHT22;1911;53.768;11.474;2023-05-20T08:33:53;20.30;1.00
3792;DHT22;1911;53.768;11.474;2023-05-20T08:36:18;20.80;1.00
3792;DHT22;1911;53.768;11.474;2023-05-20T08:38:44;20.50;1.00
3792;DHT22;1911;53.768;11.474;2023-05-20T08:41:10;19.10;99.90
3792;DHT22;1911;53.768;11.474;2023-05-20T08:43:36;19.40;99.90
3792;DHT22;1911;53.768;11.474;2023-05-20T08:46:02;19.20;1.00
3792;DHT22;1911;53.768;11.474;2023-05-20T08:48:30;19.60;1.00
3792;DHT22;1911;53.768;11.474;2023-05-20T08:50:58;19.50;1.00
3792;DHT22;1911;53.768;11.474;2023-05-20T08:53:25;19.50;1.00
3792;DHT22;1911;53.768;11.474;2023-05-20T08:55:59;19.50;99.90
3792;DHT22;1911;53.768;11.474;2023-05-20T08:58:28;19.90;1.00
3792;DHT22;1911;53.768;11.474;2023-05-20T09:00:54;20.70;1.00
3792;DHT22;1911;53.768;11.474;2023-05-20T09:03:20;20.50;1.00
3792;DHT22;1911;53.768;11.474;2023-05-20T09:05:46;19.90;1.00
3792;DHT22;1911;53.768;11.474;2023-05-20T09:08:12;19.80;99.90
3792;DHT22;1911;53.768;11.474;2023-05-20T09:10:39;19.80;99.90
3792;DHT22;1911;53.768;11.474;2023-05-20T09:13:06;20.20;1.00
3792;DHT22;1911;53.768;11.474;2023-05-20T09:15:33;20.10;1.00
3792;DHT22;1911;53.768;11.474;2023-05-20T09:18:00;20.00;1.00
3792;DHT22;1911;53.768;11.474;2023-05-20T09:20:27;20.20;1.00
3792;DHT22;1911;53.768;11.474;2023-05-20T09:22:58;19.80;99.90
3792;DHT22;1911;53.768;11.474;2023-05-20T09:25:24;19.20;99.90
3792;DHT22;1911;53.768;11.474;2023-05-20T09:27:49;18.60;99.90
3792;DHT22;1911;53.768;11.474;2023-05-20T09:30:18;17.90;99.90
3792;DHT22;1911;53.768;11.474;2023-05-20T09:32:44;17.80;99.90
3792;DHT22;1911;53.768;11.474;2023-05-20T09:35:13;17.80;99.90
3792;DHT22;1911;53.768;11.474;2023-05-20T09:37:43;17.30;99.90
3792;DHT22;1911;53.768;11.474;2023-05-20T09:40:11;17.30;99.90
3792;DHT22;1911;53.768;11.474;2023-05-20T09:42:51;17.30;99.90
3792;DHT22;1911;53.768;11.474;2023-05-20T09:45:17;17.30;99.90
3792;DHT22;1911;53.768;11.474;2023-05-20T09:47:43;17.50;99.90
3792;DHT22;1911;53.768;11.474;2023-05-20T09:50:09;17.20;99.90
3792;DHT22;1911;53.768;11.474;2023-05-20T09:52:36;17.10;99.90
3792;DHT22;1911;53.768;11.474;2023-05-20T09:55:04;17.00;99.90
3792;DHT22;1911;53.768;11.474;2023-05-20T09:57:34;17.00;99.90
3792;DHT22;1911;53.768;11.474;2023-05-20T10:00:01;16.90;99.90
3792;DHT22;1911;53.768;11.474;2023-05-20T10:02:29;17.10;99.90
3792;DHT22;1911;53.768;11.474;2023-05-20T10:04:56;17.20;99.90
3792;DHT22;1911;53.768;11.474;2023-05-20T10:19:00;17.00;99.90
3792;DHT22;1911;53.768;11.474;2023-05-20T10:21:31;16.60;99.90
3792;DHT22;1911;53.768;11.474;2023-05-20T10:24:05;16.40;99.90
3792;DHT22;1911;53.768;11.474;2023-05-20T10:26:39;16.60;99.90
3792;DHT22;1911;53.768;11.474;2023-05-20T10:29:18;16.70;99.90
3792;DHT22;1911;53.768;11.474;2023-05-20T10:31:48;16.80;99.90
3792;DHT22;1911;53.768;11.474;2023-05-20T10:34:18;16.80;99.90
3792;DHT22;1911;53.768;11.474;2023-05-20T10:37:04;16.60;99.90
3792;DHT22;1911;53.768;11.474;2023-05-20T10:39:31;17.10;99.90
3792;DHT22;1911;53.768;11.474;2023-05-20T10:42:09;17.30;1.00
3792;DHT22;1911;53.768;11.474;2023-05-20T10:44:44;17.50;1.00
3792;DHT22;1911;53.768;11.474;2023-05-20T10:47:11;17.50;1.00
3792;DHT22;1911;53.768;11.474;2023-05-20T10:49:46;17.30;1.00
3792;DHT22;1911;53.768;11.474;2023-05-20T10:52:18;17.20;1.00
3792;DHT22;1911;53.768;11.474;2023-05-20T10:54:55;16.90;99.90
3792;DHT22;1911;53.768;11.474;2023-05-20T10:57:22;16.90;99.90
3792;DHT22;1911;53.768;11.474;2023-05-20T10:59:48;17.10;1.00
3792;DHT22;1911;53.768;11.474;2023-05-20T11:02:15;17.10;1.00
3792;DHT22;1911;53.768;11.474;2023-05-20T11:04:45;17.00;1.00
3792;DHT22;1911;53.768;11.474;2023-05-20T11:07:11;16.80;1.00
3792;DHT22;1911;53.768;11.474;2023-05-20T11:09:37;16.60;1.00
3792;DHT22;1911;53.768;11.474;2023-05-20T11:12:04;16.40;1.00
3792;DHT22;1911;53.768;11.474;2023-05-20T11:14:30;16.50;1.00
3792;DHT22;1911;53.768;11.474;2023-05-20T11:16:57;16.40;1.00
3792;DHT22;1911;53.768;11.474;2023-05-20T11:19:23;16.40;1.00
3792;DHT22;1911;53.768;11.474;2023-05-20T11:21:48;16.80;1.00
3792;DHT22;1911;53.768;11.474;2023-05-20T11:24:23;17.10;1.00
3792;DHT22;1911;53.768;11.474;2023-05-20T11:26:50;16.90;1.00
3792;DHT22;1911;53.768;11.474;2023-05-20T11:29:17;16.70;1.00
3792;DHT22;1911;53.768;11.474;2023-05-20T11:31:44;16.50;1.00
3792;DHT22;1911;53.768;11.474;2023-05-20T11:34:10;16.20;1.00
3792;DHT22;1911;53.768;11.474;2023-05-20T11:36:42;15.90;1.00
3792;DHT22;1911;53.768;11.474;2023-05-20T11:39:11;15.80;1.00
3792;DHT22;1911;53.768;11.474;2023-05-20T11:41:38;15.80;1.00
3792;DHT22;1911;53.768;11.474;2023-05-20T11:44:06;16.00;1.00
3792;DHT22;1911;53.768;11.474;2023-05-20T11:46:40;16.10;1.00
3792;DHT22;1911;53.768;11.474;2023-05-20T11:49:06;16.30;1.00
3792;DHT22;1911;53.768;11.474;2023-05-20T11:51:33;16.40;1.00
3792;DHT22;1911;53.768;11.474;2023-05-20T11:54:02;16.30;1.00
3792;DHT22;1911;53.768;11.474;2023-05-20T11:56:29;16.40;1.00
3792;DHT22;1911;53.768;11.474;2023-05-20T11:59:01;16.20;1.00
3792;DHT22;1911;53.768;11.474;2023-05-20T12:01:30;16.30;1.00
3792;DHT22;1911;53.768;11.474;2023-05-20T12:03:58;16.20;1.00
3792;DHT22;1911;53.768;11.474;2023-05-20T12:06:24;16.20;1.00
3792;DHT22;1911;53.768;11.474;2023-05-20T12:08:49;16.10;1.00
3792;DHT22;1911;53.768;11.474;2023-05-20T12:11:15;15.90;1.00
3792;DHT22;1911;53.768;11.474;2023-05-20T12:13:41;16.10;27.90
3792;DHT22;1911;53.768;11.474;2023-05-20T12:16:07;16.10;9.90
3792;DHT22;1911;53.768;11.474;2023-05-20T12:18:32;16.20;14.40
3792;DHT22;1911;53.768;11.474;2023-05-20T12:20:59;16.40;1.00
3792;DHT22;1911;53.768;11.474;2023-05-20T12:23:24;16.40;23.00
3792;DHT22;1911;53.768;11.474;2023-05-20T12:25:50;16.30;1.00
3792;DHT22;1911;53.768;11.474;2023-05-20T12:28:16;16.40;2.10
3792;DHT22;1911;53.768;11.474;2023-05-20T12:30:42;16.50;1.00
3792;DHT22;1911;53.768;11.474;2023-05-20T12:33:08;16.80;1.00
3792;DHT22;1911;53.768;11.474;2023-05-20T12:35:42;17.00;1.00
3792;DHT22;1911;53.768;11.474;2023-05-20T12:38:08;16.70;1.00
3792;DHT22;1911;53.768;11.474;2023-05-20T12:40:35;16.70;1.00
3792;DHT22;1911;53.768;11.474;2023-05-20T12:43:02;16.60;1.00
3792;DHT22;1911;53.768;11.474;2023-05-20T12:45:28;16.50;1.00
3792;DHT22;1911;53.768;11.474;2023-05-20T12:47:54;16.60;1.00
3792;DHT22;1911;53.768;11.474;2023-05-20T12:50:21;16.40;1.00
3792;DHT22;1911;53.768;11.474;2023-05-20T12:52:46;16.50;1.00
3792;DHT22;1911;53.768;11.474;2023-05-20T12:55:12;16.40;1.00
3792;DHT22;1911;53.768;11.474;2023-05-20T12:57:47;16.50;1.00
3792;DHT22;1911;53.768;11.474;2023-05-20T13:00:13;16.50;1.00
3792;DHT22;1911;53.768;11.474;2023-05-20T13:02:40;16.60;1.00
3792;DHT22;1911;53.768;11.474;2023-05-20T13:05:06;16.70;1.00
3792;DHT22;1911;53.768;11.474;2023-05-20T13:07:32;16.60;1.00
3792;DHT22;1911;53.768;11.474;2023-05-20T13:09:58;16.50;1.00
3792;DHT22;1911;53.768;11.474;2023-05-20T13:12:24;16.40;1.00
3792;DHT22;1911;53.768;11.474;2023-05-20T13:14:49;16.40;1.00
3792;DHT22;1911;53.768;11.474;2023-05-20T13:17:15;16.40;1.00
3792;DHT22;1911;53.768;11.474;2023-05-20T13:19:41;16.50;1.00
3792;DHT22;1911;53.768;11.474;2023-05-20T13:22:07;16.70;1.00
3792;DHT22;1911;53.768;11.474;2023-05-20T13:24:33;16.80;1.00
3792;DHT22;1911;53.768;11.474;2023-05-20T13:26:59;16.60;1.00
3792;DHT22;1911;53.768;11.474;2023-05-20T13:29:26;16.70;1.00
3792;DHT22;1911;53.768;11.474;2023-05-20T13:31:52;16.70;1.00
3792;DHT22;1911;53.768;11.474;2023-05-20T13:34:17;16.60;1.00
3792;DHT22;1911;53.768;11.474;2023-05-20T13:36:43;16.50;1.00
3792;DHT22;1911;53.768;11.474;2023-05-20T13:39:10;16.30;36.70
3792;DHT22;1911;53.768;11.474;2023-05-20T13:41:36;16.20;99.90
3792;DHT22;1911;53.768;11.474;2023-05-20T13:44:01;16.10;99.90
3792;DHT22;1911;53.768;11.474;2023-05-20T13:46:27;16.10;99.90
3792;DHT22;1911;53.768;11.474;2023-05-20T13:48:52;16.10;99.90
3792;DHT22;1911;53.768;11.474;2023-05-20T13:51:18;16.10;99.90
3792;DHT22;1911;53.768;11.474;2023-05-20T13:53:44;16.20;99.90
3792;DHT22;1911;53.768;11.474;2023-05-20T13:56:09;16.30;99.90
3792;DHT22;1911;53.768;11.474;2023-05-20T13:58:35;16.40;99.90
3792;DHT22;1911;53.768;11.474;2023-05-20T14:01:02;16.20;99.90
3792;DHT22;1911;53.768;11.474;2023-05-20T14:03:29;16.10;99.90
3792;DHT22;1911;53.768;11.474;2023-05-20T14:05:55;16.00;1.00
3792;DHT22;1911;53.768;11.474;2023-05-20T14:08:21;16.20;1.00
3792;DHT22;1911;53.768;11.474;2023-05-20T14:10:46;16.20;1.00
3792;DHT22;1911;53.768;11.474;2023-05-20T14:13:12;16.10;1.00
3792;DHT22;1911;53.768;11.474;2023-05-20T14:15:37;16.10;1.00
3792;DHT22;1911;53.768;11.474;2023-05-20T14:18:03;16.20;1.00
3792;DHT22;1911;53.768;11.474;2023-05-20T14:20:29;16.10;1.00
3792;DHT22;1911;53.768;11.474;2023-05-20T14:22:54;16.20;1.00
3792;DHT22;1911;53.768;11.474;2023-05-20T14:25:20;16.20;1.00
3792;DHT22;1911;53.768;11.474;2023-05-20T14:27:46;16.50;1.00
3792;DHT22;1911;53.768;11.474;2023-05-20T14:30:12;16.80;1.00
3792;DHT22;1911;53.768;11.474;2023-05-20T14:32:37;16.90;99.90
3792;DHT22;1911;53.768;11.474;2023-05-20T14:35:04;16.90;99.90
3792;DHT22;1911;53.768;11.474;2023-05-20T14:37:30;16.70;99.90
3792;DHT22;1911;53.768;11.474;2023-05-20T14:39:55;16.60;99.90
3792;DHT22;1911;53.768;11.474;2023-05-20T14:42:21;16.40;99.90
3792;DHT22;1911;53.768;11.474;2023-05-20T14:44:47;16.40;99.90
3792;DHT22;1911;53.768;11.474;2023-05-20T14:47:13;16.30;99.90
3792;DHT22;1911;53.768;11.474;2023-05-20T14:49:46;16.30;99.90
3792;DHT22;1911;53.768;11.474;2023-05-20T14:52:14;16.30;99.90
3792;DHT22;1911;53.768;11.474;2023-05-20T14:54:40;16.30;99.90
3792;DHT22;1911;53.768;11.474;2023-05-20T14:57:06;16.50;1.00
3792;DHT22;1911;53.768;11.474;2023-05-20T14:59:32;16.40;99.90
3792;DHT22;1911;53.768;11.474;2023-05-20T15:01:58;16.50;99.90
3792;DHT22;1911;53.768;11.474;2023-05-20T15:04:23;16.50;1.00
3792;DHT22;1911;53.768;11.474;2023-05-20T15:06:50;16.70;1.00
3792;DHT22;1911;53.768;11.474;2023-05-20T15:09:16;16.80;99.90
3792;DHT22;1911;53.768;11.474;2023-05-20T15:11:43;16.90;99.90
3792;DHT22;1911;53.768;11.474;2023-05-20T15:14:08;16.90;99.90
3792;DHT22;1911;53.768;11.474;2023-05-20T15:16:34;16.80;99.90
3792;DHT22;1911;53.768;11.474;2023-05-20T15:19:00;16.50;99.90
3792;DHT22;1911;53.768;11.474;2023-05-20T15:21:25;16.30;99.90
3792;DHT22;1911;53.768;11.474;2023-05-20T15:23:51;16.20;99.90
3792;DHT22;1911;53.768;11.474;2023-05-20T15:26:17;16.30;99.90
3792;DHT22;1911;53.768;11.474;2023-05-20T15:28:42;16.30;99.90
3792;DHT22;1911;53.768;11.474;2023-05-20T15:31:08;16.40;99.90
3792;DHT22;1911;53.768;11.474;2023-05-20T15:33:33;16.40;99.90
3792;DHT22;1911;53.768;11.474;2023-05-20T15:36:00;16.60;99.90
3792;DHT22;1911;53.768;11.474;2023-05-20T15:38:25;16.60;99.90
3792;DHT22;1911;53.768;11.474;2023-05-20T15:40:51;16.60;99.90
3792;DHT22;1911;53.768;11.474;2023-05-20T15:43:17;16.80;99.90
3792;DHT22;1911;53.768;11.474;2023-05-20T15:45:44;16.90;99.90
3792;DHT22;1911;53.768;11.474;2023-05-20T15:48:10;16.70;99.90
3792;DHT22;1911;53.768;11.474;2023-05-20T15:50:36;16.80;99.90
3792;DHT22;1911;53.768;11.474;2023-05-20T15:53:05;16.70;99.90
3792;DHT22;1911;53.768;11.474;2023-05-20T15:55:30;16.70;99.90
3792;DHT22;1911;53.768;11.474;2023-05-20T15:57:56;16.70;99.90
3792;DHT22;1911;53.768;11.474;2023-05-20T16:00:21;16.70;99.90
3792;DHT22;1911;53.768;11.474;2023-05-20T16:02:47;16.70;99.90
3792;DHT22;1911;53.768;11.474;2023-05-20T16:05:13;16.60;99.90
3792;DHT22;1911;53.768;11.474;2023-05-20T16:07:40;16.60;99.90